Villa Hills, Kentucky
Current Conditions -  °F | °C
As of 9:37 PM on Sunday 25 Jan 2015 (Local Time) from KI69 Reporting Station
Light Snow Light Snow  
Wind Chill: 34°   Ceiling: 300
Heat Index: 37°   Visibility: 2.5mi
Dew Point: 37°   Wind: 5mph
Humidity: 100%   Direction: 70°ENE
Pressure: 29.69"   Gusts: NA
Location:  39.0279°N, 84.5635°W
Report Text: KI69 260237Z AUTO 07004KT 2 1/2SM -SN OVC003 03/03 A2969 RMK AO1 P0002
Loading
Personal Weather Stations






























Interactive Weather Map New forecast layout! Learn more

10-Day Weather Forecast

Advertisements
Track Severe Weather on mobile